createdAt,value
2018-03-11T00:01:56.187Z,13.01
2018-03-11T00:04:24.443Z,12.94
2018-03-11T00:06:53.488Z,13.15
2018-03-11T00:09:21.751Z,13.51
2018-03-11T00:11:50.020Z,13.79
2018-03-11T00:14:19.041Z,13.95
2018-03-11T00:16:47.312Z,14.28
2018-03-11T00:19:16.336Z,14.06
2018-03-11T00:21:44.611Z,14.12
2018-03-11T00:24:13.660Z,13.91
2018-03-11T00:26:41.924Z,13.88
2018-03-11T00:29:10.184Z,13.96
2018-03-11T00:31:39.224Z,14.05
2018-03-11T00:34:07.487Z,13.64
2018-03-11T00:36:36.532Z,13.48
2018-03-11T00:39:04.789Z,13.51
2018-03-11T00:41:33.823Z,13.65
2018-03-11T00:44:02.075Z,13.89
2018-03-11T00:46:31.121Z,13.87
2018-03-11T00:48:59.385Z,13.70
2018-03-11T00:51:27.667Z,13.78
2018-03-11T00:53:56.697Z,13.64
2018-03-11T00:56:24.969Z,13.61
2018-03-11T00:58:53.224Z,13.31
2018-03-11T01:01:21.501Z,12.92
2018-03-11T01:03:49.764Z,12.33
2018-03-11T01:06:18.036Z,12.35
2018-03-11T01:08:46.333Z,11.94
2018-03-11T01:11:14.598Z,12.25
2018-03-11T01:13:42.858Z,12.53
2018-03-11T01:16:11.123Z,12.71
2018-03-11T01:18:39.389Z,12.66
2018-03-11T01:21:07.665Z,12.90
2018-03-11T01:23:35.923Z,13.19
2018-03-11T01:26:04.961Z,13.24
2018-03-11T01:28:33.219Z,12.84
2018-03-11T01:31:01.484Z,12.66
2018-03-11T01:33:29.740Z,13.07
2018-03-11T01:35:58.013Z,12.97
2018-03-11T01:38:26.264Z,12.76
2018-03-11T01:40:55.298Z,12.58
2018-03-11T01:43:23.560Z,12.50
2018-03-11T01:45:53.492Z,13.01
2018-03-11T01:48:22.520Z,12.90
2018-03-11T01:50:50.787Z,13.01
2018-03-11T01:53:19.811Z,12.67
2018-03-11T01:55:48.088Z,12.81
2018-03-11T01:58:17.124Z,12.97
2018-03-11T02:00:45.384Z,12.64
2018-03-11T02:03:14.407Z,12.85
2018-03-11T02:05:42.685Z,12.50
2018-03-11T02:08:11.708Z,12.62
2018-03-11T02:10:39.984Z,12.37
2018-03-11T02:13:08.244Z,12.14
2018-03-11T02:15:36.522Z,12.05
2018-03-11T02:18:04.787Z,12.42
2018-03-11T02:20:33.048Z,12.85
2018-03-11T02:23:01.325Z,12.96
2018-03-11T02:25:29.587Z,13.09
2018-03-11T02:27:57.865Z,12.72
2018-03-11T02:30:26.137Z,13.15
2018-03-11T02:32:54.401Z,13.52
2018-03-11T02:35:22.655Z,13.54
2018-03-11T02:37:51.684Z,13.54
2018-03-11T02:40:19.940Z,13.04
2018-03-11T02:42:48.971Z,13.27
2018-03-11T02:45:17.228Z,13.29
2018-03-11T02:47:45.495Z,13.21
2018-03-11T02:50:13.752Z,13.05
2018-03-11T02:52:42.026Z,13.19
2018-03-11T02:55:10.284Z,12.69
2018-03-11T02:57:38.556Z,12.35
2018-03-11T03:00:06.816Z,12.60
2018-03-11T03:02:35.085Z,12.87
2018-03-11T03:05:03.341Z,12.91
2018-03-11T03:07:31.603Z,12.43
2018-03-11T03:09:59.868Z,12.65
2018-03-11T03:12:28.127Z,12.73
2018-03-11T03:14:56.383Z,12.98
2018-03-11T03:17:24.656Z,12.53
2018-03-11T03:19:52.914Z,12.25
2018-03-11T03:22:21.184Z,12.28
2018-03-11T03:24:49.454Z,12.16
2018-03-11T03:27:18.493Z,12.25
2018-03-11T03:29:46.768Z,12.22
2018-03-11T03:32:15.037Z,12.25
2018-03-11T03:34:44.068Z,12.24
2018-03-11T03:37:12.337Z,12.23
2018-03-11T03:39:41.357Z,12.43
2018-03-11T03:42:09.623Z,12.33
2018-03-11T03:44:38.647Z,12.37
2018-03-11T03:47:06.907Z,12.24
2018-03-11T03:49:35.164Z,12.68
2018-03-11T03:52:03.432Z,12.77
2018-03-11T03:54:31.702Z,13.21
2018-03-11T03:56:59.975Z,13.11
2018-03-11T03:59:28.997Z,12.87
2018-03-11T04:01:57.268Z,12.37
2018-03-11T04:04:26.293Z,12.29
2018-03-11T04:06:54.591Z,11.82
2018-03-11T04:09:22.848Z,11.85
2018-03-11T04:11:52.052Z,12.25
2018-03-11T04:14:21.971Z,12.43
2018-03-11T04:16:50.242Z,12.39
2018-03-11T04:19:18.499Z,12.30
2018-03-11T04:21:46.768Z,12.15
2018-03-11T04:24:15.027Z,12.40
2018-03-11T04:26:43.307Z,12.56
2018-03-11T04:29:11.563Z,12.66
2018-03-11T04:31:39.831Z,12.87
2018-03-11T04:34:08.096Z,12.93
2018-03-11T04:36:37.132Z,12.98
2018-03-11T04:39:05.421Z,12.88
2018-03-11T04:41:33.688Z,12.75
2018-03-11T04:44:02.718Z,12.58
2018-03-11T04:46:30.986Z,12.89
2018-03-11T04:49:00.022Z,13.15
2018-03-11T04:51:28.283Z,13.01
2018-03-11T04:53:56.557Z,13.16
2018-03-11T04:56:25.584Z,12.87
2018-03-11T04:58:53.864Z,12.68
2018-03-11T05:01:22.897Z,12.72
2018-03-11T05:03:51.168Z,12.81
2018-03-11T05:06:19.425Z,12.65
2018-03-11T05:08:47.696Z,12.78
2018-03-11T05:11:15.963Z,12.88
2018-03-11T05:13:44.240Z,12.91
2018-03-11T05:16:12.506Z,12.65
2018-03-11T05:18:41.548Z,12.32
2018-03-11T05:21:09.804Z,12.59
2018-03-11T05:23:38.076Z,12.39
2018-03-11T05:26:07.102Z,12.44
2018-03-11T05:28:35.371Z,12.37
2018-03-11T05:31:04.400Z,12.47
2018-03-11T05:33:32.667Z,12.29
2018-03-11T05:36:01.692Z,13.03
2018-03-11T05:38:29.965Z,13.25
2018-03-11T05:40:58.988Z,13.30
2018-03-11T05:43:27.255Z,13.62
2018-03-11T05:45:56.278Z,13.33
2018-03-11T05:48:24.551Z,13.12
2018-03-11T05:50:54.476Z,13.50
2018-03-11T05:53:23.555Z,13.76
2018-03-11T05:55:51.785Z,14.16
2018-03-11T05:58:20.057Z,14.33
2018-03-11T06:00:49.231Z,14.31
2018-03-11T06:03:17.500Z,14.32
2018-03-11T06:05:46.531Z,14.18
2018-03-11T06:08:14.808Z,14.19
2018-03-11T06:10:43.068Z,14.44
2018-03-11T06:13:11.332Z,14.66
2018-03-11T06:15:40.368Z,14.74
2018-03-11T06:18:08.640Z,14.82
2018-03-11T06:20:36.908Z,14.89
2018-03-11T06:23:05.944Z,14.86
2018-03-11T06:25:34.195Z,15.02
2018-03-11T06:28:02.468Z,15.20
2018-03-11T06:30:30.729Z,15.37
2018-03-11T06:32:59.011Z,15.17
2018-03-11T06:35:27.268Z,14.85
2018-03-11T06:37:56.300Z,13.95
2018-03-11T06:40:24.560Z,13.38
2018-03-11T06:42:53.592Z,13.29
2018-03-11T06:45:21.861Z,13.15
2018-03-11T06:47:50.129Z,13.29
2018-03-11T06:50:18.387Z,13.69
2018-03-11T06:52:46.651Z,14.07
2018-03-11T06:55:14.918Z,14.41
2018-03-11T06:57:43.188Z,14.06
2018-03-11T07:00:12.216Z,13.53
2018-03-11T07:02:40.483Z,13.22
2018-03-11T07:05:09.507Z,12.75
2018-03-11T07:07:37.775Z,12.50
2018-03-11T07:10:06.801Z,12.65
2018-03-11T07:12:35.077Z,12.45
2018-03-11T07:15:04.996Z,12.67
2018-03-11T07:17:34.041Z,12.73
2018-03-11T07:20:02.304Z,13.00
2018-03-11T07:22:31.333Z,13.49
2018-03-11T07:24:59.597Z,13.17
2018-03-11T07:27:28.626Z,13.15
2018-03-11T07:29:56.884Z,13.91
2018-03-11T07:32:25.932Z,14.24
2018-03-11T07:34:54.183Z,14.30
2018-03-11T07:37:23.217Z,14.67
2018-03-11T07:39:51.489Z,14.71
2018-03-11T07:42:19.753Z,15.10
2018-03-11T07:44:48.027Z,15.31
2018-03-11T07:47:16.276Z,14.91
2018-03-11T07:49:44.558Z,15.23
2018-03-11T07:52:12.807Z,15.54
2018-03-11T07:54:41.876Z,15.86
2018-03-11T07:57:10.100Z,16.23
2018-03-11T07:59:39.136Z,16.37
2018-03-11T08:02:07.395Z,16.29
2018-03-11T08:04:36.431Z,16.59
2018-03-11T08:07:05.461Z,15.99
2018-03-11T08:09:34.490Z,16.09
2018-03-11T08:12:02.757Z,15.60
2018-03-11T08:14:31.034Z,15.50
2018-03-11T08:16:59.296Z,15.84
2018-03-11T08:19:28.330Z,16.06
2018-03-11T08:21:56.593Z,16.46
2018-03-11T08:24:25.630Z,16.67
2018-03-11T08:26:57.407Z,16.66
2018-03-11T08:29:25.675Z,17.04
2018-03-11T08:31:53.939Z,16.51
2018-03-11T08:34:22.971Z,17.07
2018-03-11T08:36:51.237Z,16.64
2018-03-11T08:39:19.512Z,16.67
2018-03-11T08:41:47.771Z,16.37
2018-03-11T08:44:16.039Z,16.34
2018-03-11T08:46:44.308Z,16.70
2018-03-11T08:49:12.599Z,16.82
2018-03-11T08:51:41.613Z,16.96
2018-03-11T08:54:09.880Z,17.19
2018-03-11T08:56:38.908Z,16.88
2018-03-11T08:59:07.195Z,16.42
2018-03-11T09:01:36.205Z,16.15
2018-03-11T09:04:04.472Z,16.55
2018-03-11T09:06:33.505Z,16.78
2018-03-11T09:09:01.778Z,17.18
2018-03-11T09:11:30.049Z,17.47
2018-03-11T09:13:59.156Z,17.00
2018-03-11T09:16:28.176Z,16.35
2018-03-11T09:18:56.448Z,16.71
2018-03-11T09:21:25.471Z,17.20
2018-03-11T09:23:53.744Z,17.47
2018-03-11T09:26:22.765Z,17.56
2018-03-11T09:28:51.067Z,17.88
2018-03-11T09:31:19.332Z,17.11
2018-03-11T09:33:48.367Z,16.90
2018-03-11T09:36:16.640Z,17.04
2018-03-11T09:38:44.912Z,17.06
2018-03-11T09:41:13.933Z,17.12
2018-03-11T09:43:42.203Z,17.29
2018-03-11T09:46:11.228Z,17.67
2018-03-11T09:48:39.496Z,17.35
2018-03-11T09:51:08.529Z,17.77
2018-03-11T09:53:36.796Z,17.69
2018-03-11T09:56:05.815Z,18.21
2018-03-11T09:58:34.112Z,17.71
2018-03-11T10:01:03.120Z,16.81
2018-03-11T10:03:31.383Z,16.87
2018-03-11T10:06:00.433Z,16.51
2018-03-11T10:08:28.703Z,16.03
2018-03-11T10:10:56.972Z,16.65
2018-03-11T10:13:26.128Z,16.99
2018-03-11T10:15:55.100Z,16.99
2018-03-11T10:18:23.390Z,17.09
2018-03-11T10:20:51.657Z,16.85
2018-03-11T10:23:20.697Z,16.30
2018-03-11T10:25:48.960Z,16.55
2018-03-11T10:28:17.997Z,17.01
2018-03-11T10:30:46.266Z,17.17
2018-03-11T10:33:14.519Z,17.84
2018-03-11T10:35:42.793Z,18.24
2018-03-11T10:38:11.048Z,18.61
2018-03-11T10:40:39.317Z,18.32
2018-03-11T10:43:07.574Z,18.21
2018-03-11T10:45:35.838Z,18.75
2018-03-11T10:48:04.091Z,18.76
2018-03-11T10:50:32.361Z,18.83
2018-03-11T10:53:01.383Z,18.91
2018-03-11T10:55:29.656Z,18.51
2018-03-11T10:57:58.685Z,18.37
2018-03-11T11:00:27.860Z,19.10
2018-03-11T11:05:58.621Z,19.21
2018-03-11T11:08:26.932Z,19.58
2018-03-11T11:10:55.176Z,19.53
2018-03-11T11:13:23.443Z,18.92
2018-03-11T11:15:51.731Z,19.42
2018-03-11T11:18:19.979Z,19.68
2018-03-11T11:20:48.250Z,19.81
2018-03-11T11:23:16.508Z,18.99
2018-03-11T11:25:44.783Z,19.69
2018-03-11T11:28:13.053Z,19.54
2018-03-11T11:30:42.079Z,19.18
2018-03-11T11:33:10.348Z,19.24
2018-03-11T11:35:38.647Z,18.81
2018-03-11T11:38:06.915Z,18.87
2018-03-11T11:40:35.964Z,18.54
2018-03-11T11:43:07.471Z,18.35
2018-03-11T11:45:35.749Z,18.76
2018-03-11T11:48:04.019Z,18.98
2018-03-11T11:50:32.295Z,18.82
2018-03-11T11:53:00.563Z,18.67
2018-03-11T11:55:28.827Z,18.49
2018-03-11T11:57:57.860Z,18.43
2018-03-11T12:00:26.740Z,18.58
2018-03-11T12:02:55.765Z,18.67
2018-03-11T12:05:24.084Z,18.64
2018-03-11T12:07:53.076Z,18.63
2018-03-11T12:10:21.359Z,19.05
2018-03-11T12:12:49.616Z,19.47
2018-03-11T12:15:18.660Z,19.53
2018-03-11T12:17:46.925Z,19.67
2018-03-11T12:20:15.959Z,19.41
2018-03-11T12:22:44.220Z,18.86
2018-03-11T12:25:13.256Z,18.00
2018-03-11T12:27:41.516Z,17.91
2018-03-11T12:30:10.548Z,18.24
2018-03-11T12:32:38.837Z,18.57
2018-03-11T12:35:07.848Z,18.43
2018-03-11T12:37:36.113Z,18.90
2018-03-11T12:40:04.456Z,18.70
2018-03-11T12:42:32.715Z,18.70
2018-03-11T12:45:00.991Z,19.32
2018-03-11T12:47:29.265Z,19.08
2018-03-11T12:49:58.304Z,19.49
2018-03-11T12:52:26.573Z,19.58
2018-03-11T12:54:54.839Z,19.43
2018-03-11T12:57:23.877Z,19.08
2018-03-11T12:59:52.146Z,19.25
2018-03-11T13:02:21.171Z,19.59
2018-03-11T13:04:49.446Z,19.73
2018-03-11T13:07:17.716Z,19.79
2018-03-11T13:09:46.748Z,19.81
2018-03-11T13:12:15.004Z,19.32
2018-03-11T13:14:44.937Z,19.32
2018-03-11T13:17:13.965Z,18.80
2018-03-11T13:19:42.243Z,19.10
2018-03-11T13:22:11.263Z,19.29
2018-03-11T13:24:39.541Z,19.75
2018-03-11T13:27:07.812Z,19.68
2018-03-11T13:29:36.907Z,19.58
2018-03-11T13:32:22.906Z,20.06
2018-03-11T13:34:51.185Z,20.08
2018-03-11T13:37:19.482Z,20.37
2018-03-11T13:40:05.365Z,20.64
2018-03-11T13:42:33.630Z,20.76
2018-03-11T13:45:19.792Z,21.11
2018-03-11T13:47:48.055Z,21.25
2018-03-11T13:50:16.323Z,21.70
2018-03-11T13:53:02.336Z,21.71
2018-03-11T13:55:30.612Z,21.46
2018-03-11T14:01:11.272Z,21.31
2018-03-11T14:03:39.711Z,20.63
2018-03-11T14:06:07.999Z,19.88
2018-03-11T14:08:37.008Z,20.16
2018-03-11T14:11:05.276Z,20.11
2018-03-11T14:13:34.318Z,20.23
2018-03-11T14:16:02.608Z,19.97
2018-03-11T14:18:30.858Z,20.21
2018-03-11T14:20:59.902Z,20.09
2018-03-11T14:23:28.163Z,20.18
2018-03-11T14:25:56.436Z,19.81
2018-03-11T14:28:25.460Z,20.29
2018-03-11T14:30:54.443Z,19.80
2018-03-11T14:33:22.695Z,20.06
2018-03-11T14:35:51.061Z,20.31
2018-03-11T14:38:20.094Z,20.22
2018-03-11T14:40:48.375Z,20.58
2018-03-11T14:43:17.400Z,19.94
2018-03-11T14:45:45.677Z,20.08
2018-03-11T14:48:13.951Z,19.97
2018-03-11T14:50:42.240Z,19.64
2018-03-11T14:53:10.479Z,19.51
2018-03-11T14:55:39.310Z,19.29
2018-03-11T14:58:07.585Z,19.47
2018-03-11T15:00:35.872Z,19.86
2018-03-11T15:03:04.909Z,19.30
2018-03-11T15:05:33.183Z,19.35
2018-03-11T15:08:01.448Z,19.91
2018-03-11T15:10:30.487Z,19.99
2018-03-11T15:12:58.752Z,19.93
2018-03-11T15:15:27.780Z,20.11
2018-03-11T15:17:56.053Z,19.72
2018-03-11T15:20:25.079Z,19.94
2018-03-11T15:22:53.355Z,20.14
2018-03-11T15:25:21.615Z,20.03
2018-03-11T15:27:49.881Z,20.01
2018-03-11T15:30:18.161Z,20.12
2018-03-11T15:32:46.453Z,19.97
2018-03-11T15:35:14.713Z,19.70
2018-03-11T15:37:43.009Z,19.99
2018-03-11T15:40:11.297Z,20.04
2018-03-11T15:42:39.516Z,19.90
2018-03-11T15:45:07.778Z,20.24
2018-03-11T15:47:36.045Z,20.33
2018-03-11T15:50:04.311Z,20.35
2018-03-11T15:52:33.341Z,19.80
2018-03-11T15:55:01.626Z,19.37
2018-03-11T15:57:29.951Z,19.89
2018-03-11T15:59:58.937Z,19.80
2018-03-11T16:02:27.258Z,19.94
2018-03-11T16:04:56.226Z,19.78
2018-03-11T16:07:24.500Z,19.79
2018-03-11T16:09:53.543Z,20.03
2018-03-11T16:12:21.812Z,19.66
2018-03-11T16:14:50.068Z,19.28
2018-03-11T16:17:18.341Z,19.40
2018-03-11T16:19:46.611Z,18.81
2018-03-11T16:22:14.884Z,18.96
2018-03-11T16:24:43.155Z,19.17
2018-03-11T16:27:11.433Z,19.06
2018-03-11T16:29:40.464Z,18.43
2018-03-11T16:32:08.739Z,18.71
2018-03-11T16:34:36.993Z,18.82
2018-03-11T16:37:05.260Z,18.92
2018-03-11T16:39:33.529Z,18.83
2018-03-11T16:42:01.810Z,18.63
2018-03-11T16:44:30.072Z,18.58
2018-03-11T16:46:58.352Z,18.55
2018-03-11T16:49:27.384Z,18.39
2018-03-11T16:51:55.653Z,18.24
2018-03-11T16:54:24.672Z,18.18
2018-03-11T16:56:53.000Z,18.01
2018-03-11T16:59:21.212Z,18.16
2018-03-11T17:01:49.484Z,18.42
2018-03-11T17:04:17.748Z,18.58
2018-03-11T17:06:46.020Z,18.58
2018-03-11T17:09:14.283Z,18.23
2018-03-11T17:11:43.315Z,18.13
2018-03-11T17:14:11.591Z,18.24
2018-03-11T17:16:39.860Z,18.03
2018-03-11T17:19:08.894Z,18.04
2018-03-11T17:21:37.155Z,18.01
2018-03-11T17:24:05.404Z,17.94
2018-03-11T17:26:34.568Z,17.79
2018-03-11T17:29:03.588Z,17.47
2018-03-11T17:31:31.851Z,17.38
2018-03-11T17:34:00.888Z,16.95
2018-03-11T17:36:29.152Z,16.93
2018-03-11T17:38:58.182Z,16.82
2018-03-11T17:41:29.595Z,16.72
2018-03-11T17:43:57.861Z,16.51
2018-03-11T17:46:26.131Z,16.23
2018-03-11T17:49:12.944Z,15.83
2018-03-11T17:51:41.212Z,15.73
2018-03-11T17:54:10.240Z,15.72
2018-03-11T17:56:38.534Z,15.63
2018-03-11T17:59:09.456Z,15.52
2018-03-11T18:01:38.485Z,15.51
2018-03-11T18:04:06.740Z,15.37
2018-03-11T18:06:35.767Z,15.27
2018-03-11T18:09:04.053Z,15.28
2018-03-11T18:11:33.087Z,15.17
2018-03-11T18:14:01.353Z,15.11
2018-03-11T18:16:30.396Z,14.86
2018-03-11T18:18:58.658Z,14.85
2018-03-11T18:21:26.923Z,14.68
2018-03-11T18:23:55.943Z,14.50
2018-03-11T18:26:24.199Z,14.36
2018-03-11T18:28:52.540Z,14.28
2018-03-11T18:31:20.792Z,14.28
2018-03-11T18:33:49.820Z,14.07
2018-03-11T18:36:18.100Z,13.90
2018-03-11T18:38:46.444Z,13.67
2018-03-11T18:41:14.709Z,13.42
2018-03-11T18:43:42.976Z,13.64
2018-03-11T18:46:11.246Z,13.84
2018-03-11T18:48:40.276Z,13.93
2018-03-11T18:51:08.540Z,13.55
2018-03-11T18:53:37.571Z,13.64
2018-03-11T18:56:05.845Z,13.63
2018-03-11T18:58:34.886Z,13.67
2018-03-11T19:01:03.133Z,13.60
2018-03-11T19:03:32.176Z,13.51
2018-03-11T19:06:00.428Z,13.72
2018-03-11T19:08:29.477Z,13.58
2018-03-11T19:10:57.745Z,13.53
2018-03-11T19:13:26.007Z,13.56
2018-03-11T19:15:55.220Z,13.60
2018-03-11T19:18:24.244Z,13.33
2018-03-11T19:20:52.496Z,13.50
2018-03-11T19:23:20.769Z,13.54
2018-03-11T19:25:49.036Z,13.64
2018-03-11T19:28:17.331Z,13.62
2018-03-11T19:30:45.603Z,13.66
2018-03-11T19:33:13.867Z,13.60
2018-03-11T19:35:42.127Z,13.67
2018-03-11T19:38:10.388Z,13.69
2018-03-11T19:40:38.652Z,13.63
2018-03-11T19:43:06.924Z,13.59
2018-03-11T19:45:35.193Z,13.71
2018-03-11T19:48:04.223Z,13.68
2018-03-11T19:50:32.489Z,13.80
2018-03-11T19:53:01.516Z,13.85
2018-03-11T19:55:29.775Z,13.86
2018-03-11T19:57:58.040Z,13.89
2018-03-11T20:00:26.296Z,13.81
2018-03-11T20:02:54.576Z,13.90
2018-03-11T20:05:23.004Z,13.86
2018-03-11T20:07:51.284Z,13.77
2018-03-11T20:10:19.540Z,13.81
2018-03-11T20:12:47.832Z,13.76
2018-03-11T20:15:16.097Z,13.87
2018-03-11T20:17:45.127Z,13.82
2018-03-11T20:20:13.380Z,13.81
2018-03-11T20:22:41.650Z,13.84
2018-03-11T20:25:09.909Z,13.84
2018-03-11T20:27:38.166Z,13.44
2018-03-11T20:30:07.191Z,13.24
2018-03-11T20:32:35.459Z,13.48
2018-03-11T20:35:04.492Z,13.37
2018-03-11T20:37:32.768Z,13.54
2018-03-11T20:40:01.021Z,13.64
2018-03-11T20:42:29.294Z,13.47
2018-03-11T20:44:57.544Z,13.13
2018-03-11T20:47:25.825Z,13.15
2018-03-11T20:49:54.097Z,13.12
2018-03-11T20:52:23.124Z,13.15
2018-03-11T20:54:51.439Z,12.98
2018-03-11T20:57:19.649Z,12.97
2018-03-11T20:59:47.922Z,13.13
2018-03-11T21:02:16.184Z,12.98
2018-03-11T21:04:44.456Z,12.91
2018-03-11T21:07:12.764Z,12.97
2018-03-11T21:09:41.757Z,13.02
2018-03-11T21:12:10.019Z,13.15
2018-03-11T21:14:39.054Z,13.19
2018-03-11T21:17:07.315Z,13.18
2018-03-11T21:19:36.342Z,12.90
2018-03-11T21:22:04.595Z,12.70
2018-03-11T21:24:32.864Z,12.69
2018-03-11T21:27:01.120Z,12.82
2018-03-11T21:29:30.153Z,12.89
2018-03-11T21:31:58.413Z,12.72
2018-03-11T21:34:27.377Z,12.80
2018-03-11T21:36:55.630Z,12.69
2018-03-11T21:39:23.900Z,12.62
2018-03-11T21:41:52.160Z,12.43
2018-03-11T21:44:20.430Z,12.44
2018-03-11T21:46:48.693Z,12.25
2018-03-11T21:49:16.974Z,12.22
2018-03-11T21:51:45.228Z,12.32
2018-03-11T21:54:13.492Z,12.38
2018-03-11T21:56:42.516Z,12.36
2018-03-11T21:59:10.780Z,12.43
2018-03-11T22:01:39.800Z,12.45
2018-03-11T22:04:08.836Z,12.45
2018-03-11T22:06:37.095Z,12.44
2018-03-11T22:09:05.430Z,12.18
2018-03-11T22:11:33.700Z,12.18
2018-03-11T22:14:02.736Z,12.25
2018-03-11T22:16:31.003Z,11.92
2018-03-11T22:18:59.282Z,11.76
2018-03-11T22:21:27.541Z,11.58
2018-03-11T22:23:56.593Z,11.88
2018-03-11T22:26:24.843Z,11.96
2018-03-11T22:28:53.119Z,11.94
2018-03-11T22:31:21.370Z,11.74
2018-03-11T22:33:49.644Z,11.81
2018-03-11T22:36:17.899Z,11.66
2018-03-11T22:38:46.165Z,11.82
2018-03-11T22:41:15.207Z,11.83
2018-03-11T22:43:43.477Z,11.77
2018-03-11T22:46:12.501Z,11.74
2018-03-11T22:48:40.768Z,11.66
2018-03-11T22:51:09.791Z,11.46
2018-03-11T22:53:38.069Z,11.33
2018-03-11T22:56:07.092Z,11.31
2018-03-11T22:58:35.374Z,11.15
2018-03-11T23:01:03.640Z,11.19
2018-03-11T23:03:32.664Z,11.30
2018-03-11T23:06:00.944Z,11.44
2018-03-11T23:08:29.200Z,11.53
2018-03-11T23:10:57.463Z,11.64
2018-03-11T23:13:25.732Z,11.75
2018-03-11T23:15:53.999Z,11.81
2018-03-11T23:18:22.259Z,11.76
2018-03-11T23:20:50.538Z,11.33
2018-03-11T23:23:18.799Z,11.25
2018-03-11T23:25:47.064Z,11.38
2018-03-11T23:28:15.327Z,11.49
2018-03-11T23:30:44.373Z,11.61
2018-03-11T23:33:12.641Z,11.34
2018-03-11T23:35:40.921Z,11.53
2018-03-11T23:38:09.943Z,11.66
2018-03-11T23:40:38.220Z,11.38
2018-03-11T23:43:06.479Z,11.34
2018-03-11T23:45:34.749Z,11.10
2018-03-11T23:48:03.012Z,11.36
2018-03-11T23:50:31.620Z,11.50
2018-03-11T23:52:59.878Z,11.69
2018-03-11T23:55:28.148Z,11.79
2018-03-11T23:57:57.172Z,11.81
